Time;durP1;ratioP1;P1;durP2;ratioP2;P2;SDS_P1;SDS_P2;PMS_P1;PMS_P2;Temp;Humidity;BMP_temperature;BMP_pressure;BME280_temperature;BME280_humidity;BME280_pressure;Samples;Min_cycle;Max_cycle;Signal;HPM_P1;HPM_P2
2022/08/05 00:00:31;;;;;;;;;;;;;;;21.24;67.85;101403.09;5047308;28;19912;-66
2022/08/05 00:02:56;;;;;;;;;;;;;;;21.24;68.84;101400.44;5046495;28;19913;-66
2022/08/05 00:05:21;;;;;;;;;;;;;;;21.24;68.47;101403.09;5049724;28;20017;-66
2022/08/05 00:07:47;;;;;;;;;;;;;;;21.24;69.11;101396.94;5047415;28;19913;-66
2022/08/05 00:10:12;;;;;;;;;;;;;;;21.21;69.15;101403.13;5046558;28;20410;-66
2022/08/05 00:12:37;;;;;;;;;;;;;;;21.20;68.78;101409.31;5047046;28;20280;-67
2022/08/05 00:15:03;;;;;;;;;;;;;;;21.19;68.50;101407.59;5046454;28;19963;-66
2022/08/05 00:17:28;;;;;;;;;;;;;;;21.17;69.02;101415.56;5045472;28;19948;-66
2022/08/05 00:19:53;;;;;;;;;;;;;;;21.14;69.29;101406.75;5048830;28;19924;-66
2022/08/05 00:22:19;;;;;;;;;;;;;;;21.12;69.24;101422.66;5047115;28;20299;-66
2022/08/05 00:24:44;;;;;;;;;;;;;;;21.11;69.55;101417.38;5044498;28;20395;-66
2022/08/05 00:27:09;;;;;;;;;;;;;;;21.11;69.27;101414.75;5045358;28;20009;-66
2022/08/05 00:29:34;;;;;;;;;;;;;;;21.10;69.85;101412.97;5052160;28;19913;-66
2022/08/05 00:32:00;;;;;;;;;;;;;;;21.10;69.75;101410.31;5052205;28;20012;-66
2022/08/05 00:34:26;;;;;;;;;;;;;;;21.09;69.61;101405.94;5050562;28;19947;-66
2022/08/05 00:36:51;;;;;;;;;;;;;;;21.09;69.58;101416.53;5052118;28;19916;-66
2022/08/05 00:39:16;;;;;;;;;;;;;;;21.07;70.15;101415.66;5050529;28;20368;-66
2022/08/05 00:41:44;;;;;;;;;;;;;;;21.06;70.05;101421.84;5050967;28;19943;-66
2022/08/05 00:44:09;;;;;;;;;;;;;;;21.05;70.42;101425.41;5049515;28;19939;-66
2022/08/05 00:46:35;;;;;;;;;;;;;;;21.04;70.02;101419.22;5050140;28;19913;-66
2022/08/05 00:49:00;;;;;;;;;;;;;;;21.04;70.55;101421.00;5033386;28;19955;-66
2022/08/05 00:51:25;;;;;;;;;;;;;;;21.02;70.36;101424.53;5051966;28;19917;-66
2022/08/05 00:53:50;;;;;;;;;;;;;;;21.03;70.89;101420.13;5034469;28;19936;-66
2022/08/05 00:56:16;;;;;;;;;;;;;;;21.01;70.47;101412.19;5048797;28;20371;-66
2022/08/05 00:58:42;;;;;;;;;;;;;;;21.00;70.73;101415.72;5050500;28;19916;-66
2022/08/05 01:01:08;;;;;;;;;;;;;;;20.98;70.47;101414.00;5033892;28;19913;-66
2022/08/05 01:03:33;;;;;;;;;;;;;;;20.97;71.04;101414.88;5050374;28;19913;-66
2022/08/05 01:05:58;;;;;;;;;;;;;;;20.96;70.62;101413.16;5047583;28;19923;-66
2022/08/05 01:08:24;;;;;;;;;;;;;;;20.94;71.37;101409.63;5048072;28;20379;-66
2022/08/05 01:10:58;;;;;;;;;;;;;;;20.92;71.19;101414.94;5050489;28;19917;-66
2022/08/05 01:13:26;;;;;;;;;;;;;;;20.91;71.24;101429.06;5050605;28;19962;-66
2022/08/05 01:15:59;;;;;;;;;;;;;;;20.90;71.44;101440.56;5030405;28;20319;-66
2022/08/05 01:18:27;;;;;;;;;;;;;;;20.88;71.70;101442.34;5047154;28;19966;-66
2022/08/05 01:20:52;;;;;;;;;;;;;;;20.88;71.44;101447.63;5042688;28;19920;-66
2022/08/05 01:23:22;;;;;;;;;;;;;;;20.86;71.50;101457.38;5049056;28;19934;-66
2022/08/05 01:26:12;;;;;;;;;;;;;;;20.86;71.34;101470.63;5046280;28;19912;-66
2022/08/05 01:28:51;;;;;;;;;;;;;;;20.87;71.14;101492.69;5049689;28;19920;-66
2022/08/05 01:31:19;;;;;;;;;;;;;;;20.87;71.32;101495.34;5051747;28;19944;-66
2022/08/05 01:33:47;;;;;;;;;;;;;;;20.88;71.45;101500.63;5050753;28;19917;-66
2022/08/05 01:36:14;;;;;;;;;;;;;;;20.87;71.63;101488.28;5049705;28;19916;-66
2022/08/05 01:38:40;;;;;;;;;;;;;;;20.87;71.37;101476.78;5049193;28;19920;-66
2022/08/05 01:41:06;;;;;;;;;;;;;;;20.87;71.73;101461.78;5050013;28;19916;-66
2022/08/05 01:43:32;;;;;;;;;;;;;;;20.87;71.49;101459.16;5047255;28;19919;-66
2022/08/05 01:45:57;;;;;;;;;;;;;;;20.85;71.74;101466.22;5050723;28;19999;-66
2022/08/05 01:48:28;;;;;;;;;;;;;;;20.84;71.62;101480.34;5049628;28;19915;-66
2022/08/05 01:50:54;;;;;;;;;;;;;;;20.81;71.44;101477.72;5050239;28;19924;-66
2022/08/05 01:53:21;;;;;;;;;;;;;;;20.81;71.81;101475.06;5049735;28;19986;-66
2022/08/05 01:55:47;;;;;;;;;;;;;;;20.79;71.78;101468.91;5049102;28;19912;-66
2022/08/05 01:58:13;;;;;;;;;;;;;;;20.78;71.75;101467.16;5049948;28;19913;-66
2022/08/05 02:00:41;;;;;;;;;;;;;;;20.77;71.88;101468.03;5047049;28;19956;-66
2022/08/05 02:03:09;;;;;;;;;;;;;;;20.76;71.75;101455.72;5047966;28;20667;-66
2022/08/05 02:05:35;;;;;;;;;;;;;;;20.74;71.94;101453.09;5047653;28;20102;-66
2022/08/05 02:08:01;;;;;;;;;;;;;;;20.73;72.10;101419.53;5048228;28;20294;-66
2022/08/05 02:10:29;;;;;;;;;;;;;;;20.71;72.17;101404.53;5050139;28;19912;-66
2022/08/05 02:12:59;;;;;;;;;;;;;;;20.67;71.94;101407.22;5047931;28;19927;-66
2022/08/05 02:15:26;;;;;;;;;;;;;;;20.66;71.99;101413.41;5049824;28;19919;-66
2022/08/05 02:17:55;;;;;;;;;;;;;;;20.65;71.91;101422.22;5045964;28;20299;-66
2022/08/05 02:20:22;;;;;;;;;;;;;;;20.62;71.56;101450.50;5044263;28;19913;-66
2022/08/05 02:22:53;;;;;;;;;;;;;;;20.59;71.72;101440.78;5047380;28;19991;-66
2022/08/05 02:25:23;;;;;;;;;;;;;;;20.57;72.10;101413.47;5047367;28;19919;-66
2022/08/05 02:27:50;;;;;;;;;;;;;;;20.52;71.95;101420.56;5047877;28;20292;-66
2022/08/05 02:30:16;;;;;;;;;;;;;;;20.49;72.33;101453.25;5044861;28;19917;-66
2022/08/05 02:32:42;;;;;;;;;;;;;;;20.47;72.17;101455.03;5048395;28;19964;-66
2022/08/05 02:35:10;;;;;;;;;;;;;;;20.44;72.32;101464.75;5048169;28;19924;-66
2022/08/05 02:37:35;;;;;;;;;;;;;;;20.45;72.48;101461.22;5049683;28;19960;-66
2022/08/05 02:40:02;;;;;;;;;;;;;;;20.45;72.51;101461.22;5047056;28;19956;-66
2022/08/05 02:42:27;;;;;;;;;;;;;;;20.44;72.57;101467.41;5046725;28;20011;-66
2022/08/05 02:44:54;;;;;;;;;;;;;;;20.44;72.33;101475.34;5048597;28;20351;-66
2022/08/05 02:47:20;;;;;;;;;;;;;;;20.44;72.36;101464.75;5048506;28;19916;-66
2022/08/05 02:49:45;;;;;;;;;;;;;;;20.45;72.21;101453.25;5049775;28;19913;-66
2022/08/05 02:52:14;;;;;;;;;;;;;;;20.44;72.26;101454.19;5048438;28;19919;-66
2022/08/05 02:54:41;;;;;;;;;;;;;;;20.44;72.17;101447.09;5047551;28;20384;-66
2022/08/05 02:57:09;;;;;;;;;;;;;;;20.44;72.42;101440.94;5049363;28;19920;-66
2022/08/05 02:59:34;;;;;;;;;;;;;;;20.40;72.62;101437.44;5049129;28;19913;-66
2022/08/05 03:02:00;;;;;;;;;;;;;;;20.38;72.34;101433.94;5046370;28;19923;-66
2022/08/05 03:04:26;;;;;;;;;;;;;;;20.38;72.23;101438.31;5049291;28;19924;-66
2022/08/05 03:06:51;;;;;;;;;;;;;;;20.37;72.26;101431.28;5049245;28;19916;-66
2022/08/05 03:09:16;;;;;;;;;;;;;;;20.37;72.48;101428.66;5047388;28;19921;-66
2022/08/05 03:11:45;;;;;;;;;;;;;;;20.35;72.16;101436.59;5047789;28;20556;-66
2022/08/05 03:14:10;;;;;;;;;;;;;;;20.35;72.23;101425.13;5049673;28;19916;-66
2022/08/05 03:16:35;;;;;;;;;;;;;;;20.35;72.60;101438.34;5048786;28;19920;-66
2022/08/05 03:19:00;;;;;;;;;;;;;;;20.33;72.55;101441.91;5049596;28;20383;-66
2022/08/05 03:21:26;;;;;;;;;;;;;;;20.33;72.59;101451.59;5046165;28;19913;-66
2022/08/05 03:23:51;;;;;;;;;;;;;;;20.32;72.46;101461.31;5049771;28;20163;-66
2022/08/05 03:26:16;;;;;;;;;;;;;;;20.31;72.35;101463.97;5046476;28;19999;-66
2022/08/05 03:28:42;;;;;;;;;;;;;;;20.30;72.15;101457.78;5048205;28;20392;-66
2022/08/05 03:31:07;;;;;;;;;;;;;;;20.27;72.21;101457.81;5047797;28;20461;-66
2022/08/05 03:33:33;;;;;;;;;;;;;;;20.27;72.30;101459.59;5049731;28;19921;-66
2022/08/05 03:35:58;;;;;;;;;;;;;;;20.24;72.56;101460.47;5048516;28;20441;-66
2022/08/05 03:38:25;;;;;;;;;;;;;;;20.23;72.62;101471.94;5047984;28;20015;-66
2022/08/05 03:40:52;;;;;;;;;;;;;;;20.22;72.25;101474.59;5048681;28;19971;-66
2022/08/05 03:43:17;;;;;;;;;;;;;;;20.21;72.03;101467.56;5046230;28;19913;-66
2022/08/05 03:45:43;;;;;;;;;;;;;;;20.19;72.67;101464.94;5046901;28;19913;-66
2022/08/05 03:48:08;;;;;;;;;;;;;;;20.19;72.58;101459.66;5046086;28;20433;-66
2022/08/05 03:50:44;;;;;;;;;;;;;;;20.17;72.44;101458.75;5048505;28;20360;-66
2022/08/05 03:53:12;;;;;;;;;;;;;;;20.18;72.63;101451.72;5045459;28;19917;-66
2022/08/05 03:55:41;;;;;;;;;;;;;;;20.17;72.79;101445.53;5046940;28;19935;-66
2022/08/05 03:58:09;;;;;;;;;;;;;;;20.18;72.53;101442.00;5047551;28;19908;-66
2022/08/05 04:00:35;;;;;;;;;;;;;;;20.18;72.43;101441.13;5048748;28;20387;-66
2022/08/05 04:03:01;;;;;;;;;;;;;;;20.17;72.53;101436.72;5049633;28;19959;-66
2022/08/05 04:05:32;;;;;;;;;;;;;;;20.15;72.75;101434.97;5052410;28;19951;-66
2022/08/05 04:07:58;;;;;;;;;;;;;;;20.16;72.59;101443.78;5050930;28;19920;-66
2022/08/05 04:10:23;;;;;;;;;;;;;;;20.15;72.83;101452.63;5051426;28;19913;-66
2022/08/05 04:12:48;;;;;;;;;;;;;;;20.14;72.66;101446.41;5049684;28;19920;-66
2022/08/05 04:15:14;;;;;;;;;;;;;;;20.14;72.96;101442.91;5049061;28;19919;-66
2022/08/05 04:17:39;;;;;;;;;;;;;;;20.14;72.79;101438.47;5050459;28;19966;-66
2022/08/05 04:20:04;;;;;;;;;;;;;;;20.14;72.66;101432.31;5052560;28;19952;-66
2022/08/05 04:22:30;;;;;;;;;;;;;;;20.15;72.77;101442.03;5034333;28;20394;-66
2022/08/05 04:24:55;;;;;;;;;;;;;;;20.13;72.64;101454.38;5049455;28;19917;-66
2022/08/05 04:27:20;;;;;;;;;;;;;;;20.11;72.59;101446.44;5049172;28;20036;-66
2022/08/05 04:29:45;;;;;;;;;;;;;;;20.10;72.82;101443.81;5052127;28;19913;-66
2022/08/05 04:32:10;;;;;;;;;;;;;;;20.08;72.92;101438.53;5052108;28;19951;-66
2022/08/05 04:34:36;;;;;;;;;;;;;;;20.08;72.63;101437.66;5051929;28;19960;-66
2022/08/05 04:37:02;;;;;;;;;;;;;;;20.06;72.61;101442.06;5051178;28;19912;-66
2022/08/05 04:39:27;;;;;;;;;;;;;;;20.04;72.92;101447.38;5051219;28;19924;-66
2022/08/05 04:41:52;;;;;;;;;;;;;;;20.03;72.64;101460.59;5050282;28;19913;-66
2022/08/05 04:44:18;;;;;;;;;;;;;;;20.02;72.97;101464.16;5045993;28;19921;-66
2022/08/05 04:46:43;;;;;;;;;;;;;;;20.01;72.93;101465.03;5050276;28;19912;-66
2022/08/05 04:49:08;;;;;;;;;;;;;;;19.99;72.57;101465.06;5050869;28;20342;-66
2022/08/05 04:51:33;;;;;;;;;;;;;;;19.96;72.88;101465.94;5052606;28;19931;-66
2022/08/05 04:53:59;;;;;;;;;;;;;;;19.96;73.29;101467.72;5052007;28;20451;-66
2022/08/05 04:56:24;;;;;;;;;;;;;;;19.95;73.09;101468.59;5050423;28;19921;-66
2022/08/05 04:58:50;;;;;;;;;;;;;;;19.94;73.09;101462.44;5049936;28;20003;-66
2022/08/05 05:01:15;;;;;;;;;;;;;;;19.93;73.17;101463.31;5048494;28;19924;-66
2022/08/05 05:03:40;;;;;;;;;;;;;;;19.94;73.07;101459.78;5049335;28;20292;-66
2022/08/05 05:06:09;;;;;;;;;;;;;;;19.93;73.12;101460.69;5050233;28;20395;-66
2022/08/05 05:08:35;;;;;;;;;;;;;;;19.92;73.18;101463.31;5044216;28;19912;-66
2022/08/05 05:11:00;;;;;;;;;;;;;;;19.92;73.08;101465.97;5050639;28;19913;-66
2022/08/05 05:13:25;;;;;;;;;;;;;;;19.91;73.29;101465.06;5047825;28;19947;-66
2022/08/05 05:15:51;;;;;;;;;;;;;;;19.92;73.17;101471.25;5049752;28;19916;-66
2022/08/05 05:18:16;;;;;;;;;;;;;;;19.91;73.14;101469.50;5049412;28;19988;-66
2022/08/05 05:20:42;;;;;;;;;;;;;;;19.90;73.42;101465.09;5048611;28;20284;-66
2022/08/05 05:23:07;;;;;;;;;;;;;;;19.88;72.84;101465.09;5050671;28;20368;-66
2022/08/05 05:25:32;;;;;;;;;;;;;;;19.89;73.19;101466.84;5050013;28;19920;-66
2022/08/05 05:27:57;;;;;;;;;;;;;;;19.88;73.29;101472.16;5049246;28;19916;-66
2022/08/05 05:30:23;;;;;;;;;;;;;;;19.87;73.48;101476.59;5052581;28;19909;-66
2022/08/05 05:32:48;;;;;;;;;;;;;;;19.87;73.58;101473.94;5051147;28;19920;-66
2022/08/05 05:35:13;;;;;;;;;;;;;;;19.86;73.21;101480.09;5049444;28;19913;-66
2022/08/05 05:37:49;;;;;;;;;;;;;;;19.85;73.46;101480.97;5045278;28;20387;-66
2022/08/05 05:40:15;;;;;;;;;;;;;;;19.83;73.40;101488.06;5048760;28;19924;-66
2022/08/05 05:42:40;;;;;;;;;;;;;;;19.83;73.73;101490.69;5049254;28;19916;-66
2022/08/05 05:45:06;;;;;;;;;;;;;;;19.81;73.49;101495.09;5046450;28;19923;-67
2022/08/05 05:47:31;;;;;;;;;;;;;;;19.77;73.57;101496.88;5044966;28;20075;-66
2022/08/05 05:49:56;;;;;;;;;;;;;;;19.77;73.45;101503.94;5047693;28;19917;-66
2022/08/05 05:52:22;;;;;;;;;;;;;;;19.76;73.65;101507.44;5047357;28;19913;-67
2022/08/05 05:54:47;;;;;;;;;;;;;;;19.73;73.49;101502.19;5049909;28;19925;-66
2022/08/05 05:57:13;;;;;;;;;;;;;;;19.71;73.73;101509.22;5047222;28;19992;-66
2022/08/05 05:59:38;;;;;;;;;;;;;;;19.70;73.92;101518.06;5050877;28;20403;-66
2022/08/05 06:02:03;;;;;;;;;;;;;;;19.70;73.57;101518.06;5050159;28;19913;-66
2022/08/05 06:04:28;;;;;;;;;;;;;;;19.70;73.80;101523.34;5054318;28;19916;-66
2022/08/05 06:06:54;;;;;;;;;;;;;;;19.69;73.94;101518.94;5045482;28;20433;-67
2022/08/05 06:09:19;;;;;;;;;;;;;;;19.67;73.69;101516.28;5051630;28;19919;-66
2022/08/05 06:11:44;;;;;;;;;;;;;;;19.68;73.93;101517.16;5052405;28;19923;-66
2022/08/05 06:14:09;;;;;;;;;;;;;;;19.68;73.95;101517.16;5048107;28;20363;-66
2022/08/05 06:16:35;;;;;;;;;;;;;;;19.67;74.20;101518.94;5049070;28;19917;-66
2022/08/05 06:19:00;;;;;;;;;;;;;;;19.68;73.95;101525.09;5049039;28;20379;-66
2022/08/05 06:21:25;;;;;;;;;;;;;;;19.67;74.15;101518.94;5050185;28;19912;-67
2022/08/05 06:23:50;;;;;;;;;;;;;;;19.67;74.22;101521.59;5049771;28;19919;-66
2022/08/05 06:26:17;;;;;;;;;;;;;;;19.66;74.02;101517.16;5048592;28;20281;-66
2022/08/05 06:28:42;;;;;;;;;;;;;;;19.66;74.09;101524.22;5049829;28;20999;-66
2022/08/05 06:31:07;;;;;;;;;;;;;;;19.62;73.98;101516.31;5047744;28;19948;-67
2022/08/05 06:33:32;;;;;;;;;;;;;;;19.62;74.02;101521.59;5049369;28;19919;-66
2022/08/05 06:35:57;;;;;;;;;;;;;;;19.62;73.95;101521.59;5047270;28;19913;-67
2022/08/05 06:38:23;;;;;;;;;;;;;;;19.64;74.32;101529.53;5040300;28;19986;-66
2022/08/05 06:40:48;;;;;;;;;;;;;;;19.63;74.19;101531.28;5043690;28;19959;-66
2022/08/05 06:43:13;;;;;;;;;;;;;;;19.64;74.46;101537.47;5043240;28;19996;-66
2022/08/05 06:45:38;;;;;;;;;;;;;;;19.66;73.79;101542.75;5048429;28;19918;-66
2022/08/05 06:48:04;;;;;;;;;;;;;;;19.66;74.36;101535.69;5043485;28;20453;-66
2022/08/05 06:50:29;;;;;;;;;;;;;;;19.69;73.55;101542.72;5045856;28;19976;-66
2022/08/05 06:52:54;;;;;;;;;;;;;;;19.66;73.60;101543.59;5046321;28;20350;-66
2022/08/05 06:55:19;;;;;;;;;;;;;;;19.68;73.81;101552.41;5046966;28;19963;-66
2022/08/05 06:57:44;;;;;;;;;;;;;;;19.68;73.46;101556.81;5047086;28;19955;-62
2022/08/05 07:00:10;;;;;;;;;;;;;;;19.68;74.19;101568.25;5048087;28;19919;-62
2022/08/05 07:02:45;;;;;;;;;;;;;;;19.69;74.33;101561.22;5046505;28;19970;-62
2022/08/05 07:05:11;;;;;;;;;;;;;;;19.69;74.06;101570.03;5046309;28;20347;-62
2022/08/05 07:07:40;;;;;;;;;;;;;;;19.71;74.26;101577.97;5046277;28;20519;-62
2022/08/05 07:10:06;;;;;;;;;;;;;;;19.71;73.81;101572.69;5041885;28;19920;-62
2022/08/05 07:17:59;;;;;;;;;;;;;;;19.76;73.96;101571.78;5045715;28;19935;-62
2022/08/05 07:20:24;;;;;;;;;;;;;;;19.77;74.12;101578.84;5046410;28;20865;-62
2022/08/05 07:22:49;;;;;;;;;;;;;;;19.80;74.46;101578.84;5042040;28;19923;-62
2022/08/05 07:25:15;;;;;;;;;;;;;;;19.82;74.11;101584.13;5046413;28;20454;-62
2022/08/05 07:27:40;;;;;;;;;;;;;;;19.85;74.59;101585.91;5047641;28;19917;-66
2022/08/05 07:30:05;;;;;;;;;;;;;;;19.87;73.61;101589.41;5044373;28;20378;-66
2022/08/05 07:32:34;;;;;;;;;;;;;;;19.90;74.43;101586.75;5043250;28;19924;-66
2022/08/05 07:35:00;;;;;;;;;;;;;;;19.93;73.78;101595.56;5040911;28;19916;-66
2022/08/05 07:37:25;;;;;;;;;;;;;;;19.95;74.36;101601.72;5023486;28;20293;-66
2022/08/05 07:39:50;;;;;;;;;;;;;;;19.98;73.79;101603.50;5040728;28;19924;-67
2022/08/05 07:42:15;;;;;;;;;;;;;;;20.01;74.06;101607.91;5023485;28;19975;-67
2022/08/05 07:44:41;;;;;;;;;;;;;;;20.05;74.18;101605.22;5039592;28;19923;-67
2022/08/05 07:47:06;;;;;;;;;;;;;;;20.10;74.09;101610.50;5044315;28;19916;-67
2022/08/05 07:49:32;;;;;;;;;;;;;;;20.12;73.48;101606.09;5040716;28;20014;-67
2022/08/05 07:51:57;;;;;;;;;;;;;;;20.13;73.42;101607.84;5046826;28;20006;-67
2022/08/05 07:54:25;;;;;;;;;;;;;;;20.15;73.63;101616.66;5045616;28;19939;-67
2022/08/05 07:56:50;;;;;;;;;;;;;;;20.18;73.33;101616.66;5040600;28;20334;-67
2022/08/05 07:59:15;;;;;;;;;;;;;;;20.21;73.13;101621.06;5046449;28;20376;-67
2022/08/05 08:01:41;;;;;;;;;;;;;;;20.22;72.78;101618.41;5045367;28;20372;-67
2022/08/05 08:04:06;;;;;;;;;;;;;;;20.24;73.08;101616.63;5048923;28;19923;-67
2022/08/05 08:06:31;;;;;;;;;;;;;;;20.27;73.04;101611.31;5048753;28;19916;-67
2022/08/05 08:08:56;;;;;;;;;;;;;;;20.30;73.21;101621.00;5047251;28;20375;-67
2022/08/05 08:11:22;;;;;;;;;;;;;;;20.35;72.53;101626.28;5048905;28;19909;-67
2022/08/05 08:13:47;;;;;;;;;;;;;;;20.36;72.51;101625.41;5044774;28;20272;-67
2022/08/05 08:16:12;;;;;;;;;;;;;;;20.41;72.45;101631.56;5042565;28;20351;-67
2022/08/05 08:18:38;;;;;;;;;;;;;;;20.46;73.01;101629.75;5043537;28;20039;-69
2022/08/05 08:21:03;;;;;;;;;;;;;;;20.51;72.81;101641.22;5046298;28;19913;-65
2022/08/05 08:23:29;;;;;;;;;;;;;;;20.54;72.48;101635.91;5047484;28;19936;-65
2022/08/05 08:25:54;;;;;;;;;;;;;;;20.59;72.69;101639.38;5048849;28;20372;-65
2022/08/05 08:28:19;;;;;;;;;;;;;;;20.64;72.20;101647.34;5048950;28;19955;-65
2022/08/05 08:30:45;;;;;;;;;;;;;;;20.67;72.46;101650.00;5043678;28;19913;-65
2022/08/05 08:33:10;;;;;;;;;;;;;;;20.69;71.60;101650.84;5049654;28;19967;-65
2022/08/05 08:35:36;;;;;;;;;;;;;;;20.70;71.06;101659.66;5049189;28;19913;-65
2022/08/05 08:38:02;;;;;;;;;;;;;;;20.71;71.11;101657.03;5048489;28;19913;-65
2022/08/05 08:40:28;;;;;;;;;;;;;;;20.72;71.05;101661.41;5031393;28;19921;-65
2022/08/05 08:42:53;;;;;;;;;;;;;;;20.73;70.20;101659.69;5048672;28;20330;-65
2022/08/05 08:45:22;;;;;;;;;;;;;;;20.73;70.03;101665.84;5047651;28;19924;-65
2022/08/05 08:47:48;;;;;;;;;;;;;;;20.76;70.57;101664.94;5049617;28;19920;-65
2022/08/05 08:50:14;;;;;;;;;;;;;;;20.78;69.93;101664.06;5053317;28;20125;-65
2022/08/05 08:52:40;;;;;;;;;;;;;;;20.81;70.35;101676.38;5052480;28;20119;-65
2022/08/05 08:55:06;;;;;;;;;;;;;;;20.87;70.32;101678.13;5051529;28;20415;-65
2022/08/05 08:57:33;;;;;;;;;;;;;;;20.92;69.77;101684.28;5053327;28;19908;-65
2022/08/05 08:59:58;;;;;;;;;;;;;;;20.94;69.49;101683.38;5051180;28;20391;-65
2022/08/05 09:02:24;;;;;;;;;;;;;;;20.99;70.20;101692.19;5051060;28;19912;-65
2022/08/05 09:04:49;;;;;;;;;;;;;;;21.04;69.58;101693.91;5051886;28;19912;-65
2022/08/05 09:07:14;;;;;;;;;;;;;;;21.06;69.48;101697.44;5052290;28;19916;-65
2022/08/05 09:09:41;;;;;;;;;;;;;;;21.10;69.68;101700.06;5053022;28;19913;-65
2022/08/05 09:12:07;;;;;;;;;;;;;;;21.13;69.55;101699.16;5050287;28;19995;-65
2022/08/05 09:14:33;;;;;;;;;;;;;;;21.20;69.10;101698.22;5052225;28;20011;-65
2022/08/05 09:16:59;;;;;;;;;;;;;;;21.25;69.14;101693.78;5051078;28;20007;-65
2022/08/05 09:19:24;;;;;;;;;;;;;;;21.30;69.09;101702.56;5052835;28;19920;-65
2022/08/05 09:21:49;;;;;;;;;;;;;;;21.39;69.31;101711.34;5051456;28;19912;-65
2022/08/05 09:24:15;;;;;;;;;;;;;;;21.45;69.11;101708.63;5052697;28;19913;-65
2022/08/05 09:26:40;;;;;;;;;;;;;;;21.49;68.94;101707.72;5051795;28;19916;-65
2022/08/05 09:29:06;;;;;;;;;;;;;;;21.51;68.35;101711.28;5051896;28;20039;-65
2022/08/05 09:31:32;;;;;;;;;;;;;;;21.50;68.45;101714.81;5049398;28;20011;-64
2022/08/05 09:34:05;;;;;;;;;;;;;;;21.50;68.34;101714.81;5051250;28;20011;-64
2022/08/05 09:36:39;;;;;;;;;;;;;;;21.50;68.44;101726.28;5034427;28;19908;-65
2022/08/05 09:39:06;;;;;;;;;;;;;;;21.49;68.29;101723.63;5050398;28;19987;-65
2022/08/05 09:41:31;;;;;;;;;;;;;;;21.48;68.41;101727.22;5052541;28;20051;-64
2022/08/05 09:43:57;;;;;;;;;;;;;;;21.51;68.67;101732.50;5050678;28;20430;-65
2022/08/05 09:46:26;;;;;;;;;;;;;;;21.55;68.69;101731.56;5041089;28;19939;-64
2022/08/05 09:48:53;;;;;;;;;;;;;;;21.61;68.00;101725.34;5045221;28;19954;-64
2022/08/05 09:51:29;;;;;;;;;;;;;;;21.66;66.95;101727.06;5045651;28;19921;-64
2022/08/05 09:53:54;;;;;;;;;;;;;;;21.77;67.55;101728.75;5050741;28;19920;-65
2022/08/05 09:56:32;;;;;;;;;;;;;;;21.85;67.39;101729.56;5031435;28;19916;-65
2022/08/05 09:59:08;;;;;;;;;;;;;;;21.93;67.15;101733.03;5051166;28;19908;-64
2022/08/05 10:01:39;;;;;;;;;;;;;;;21.97;66.76;101734.78;5048626;28;19920;-64
2022/08/05 10:04:11;;;;;;;;;;;;;;;22.01;65.63;101728.50;5049133;28;19920;-65
2022/08/05 10:06:39;;;;;;;;;;;;;;;22.04;65.32;101736.47;5048046;28;19969;-64
2022/08/05 10:09:15;;;;;;;;;;;;;;;22.04;64.63;101736.47;5048014;28;20426;-64
2022/08/05 10:11:41;;;;;;;;;;;;;;;22.08;65.73;101749.69;5043493;28;20014;-64
2022/08/05 10:14:25;;;;;;;;;;;;;;;22.10;65.54;101754.09;5047859;28;20731;-64
2022/08/05 10:16:51;;;;;;;;;;;;;;;22.11;65.07;101749.66;5047271;28;20319;-64
2022/08/05 10:19:17;;;;;;;;;;;;;;;22.11;63.18;101754.97;5048773;28;20510;-64
2022/08/05 10:21:44;;;;;;;;;;;;;;;22.10;63.46;101750.56;5048497;28;19916;-64
2022/08/05 10:24:12;;;;;;;;;;;;;;;22.11;62.92;101749.66;5049530;28;19916;-64
2022/08/05 10:26:39;;;;;;;;;;;;;;;22.17;62.96;101749.59;5048151;28;20299;-64
2022/08/05 10:29:06;;;;;;;;;;;;;;;22.23;62.30;101752.19;5049718;28;19913;-64
2022/08/05 10:31:31;;;;;;;;;;;;;;;22.27;60.94;101753.91;5049905;28;20011;-64
2022/08/05 10:33:56;;;;;;;;;;;;;;;22.30;60.00;101759.19;5045623;28;20027;-64
2022/08/05 10:36:22;;;;;;;;;;;;;;;22.34;60.45;101752.13;5048517;28;19971;-64
2022/08/05 10:41:36;;;;;;;2.90;1.40;;;;;;;22.34;53.22;101747.66;5088710;27;20468;-59
2022/08/05 10:44:08;;;;;;;3.17;1.55;;;;;;;22.36;54.50;101756.53;5084695;28;20046;-60
2022/08/05 10:46:49;;;;;;;3.28;1.50;;;;;;;22.38;56.77;101756.50;5086568;28;20036;-59
2022/08/05 10:49:16;;;;;;;4.05;1.30;;;;;;;22.35;52.96;101762.72;5084073;28;20035;-60
2022/08/05 10:51:47;;;;;;;3.63;1.48;;;;;;;22.35;52.83;101769.81;5085966;28;20071;-60
2022/08/05 10:54:13;;;;;;;3.67;1.30;;;;;;;22.37;52.85;101776.84;5082126;28;20029;-60
2022/08/05 10:56:49;;;;;;;2.10;1.13;;;;;;;22.51;53.45;101775.84;5082289;28;20039;-60
2022/08/05 10:59:17;;;;;;;2.00;1.00;;;;;;;22.56;49.76;101774.00;5082384;28;20024;-61
2022/08/05 11:01:43;;;;;;;2.60;1.20;;;;;;;22.64;51.21;101776.53;5096729;28;20498;-61
2022/08/05 11:04:16;;;;;;;2.97;1.10;;;;;;;22.74;52.09;101789.72;5093459;28;20027;-60
2022/08/05 11:06:59;;;;;;;2.08;1.17;;;;;;;22.84;49.29;101776.31;5082799;28;20035;-60
2022/08/05 11:09:45;;;;;;;2.70;1.10;;;;;;;22.93;52.42;101785.06;5092913;28;20052;-60
2022/08/05 11:12:23;;;;;;;2.13;1.10;;;;;;;22.97;50.33;101777.03;5084849;28;20526;-60
2022/08/05 11:15:18;;;;;;;1.85;1.00;;;;;;;23.04;49.81;101787.59;5101581;28;20031;-59
2022/08/05 11:17:45;;;;;;;2.10;1.00;;;;;;;23.07;47.33;101794.63;5078546;28;20059;-62
2022/08/05 11:20:33;;;;;;;3.60;1.30;;;;;;;23.17;50.93;101795.41;5084654;28;20628;-62
2022/08/05 11:22:59;;;;;;;;;;;;;;;23.22;50.83;101794.44;5080117;28;20158;-60
2022/08/05 11:25:28;;;;;;;5.63;1.30;;;;;;;23.23;49.24;101798.88;5085695;28;19999;-59
2022/08/05 11:27:55;;;;;;;2.58;1.30;;;;;;;23.32;47.62;101795.22;5089055;28;20035;-59
2022/08/05 11:30:20;;;;;;;4.57;1.40;;;;;;;23.43;50.09;101795.94;5087295;28;20522;-59
2022/08/05 11:32:46;;;;;;;2.50;1.40;;;;;;;23.54;51.66;101802.88;5087617;28;20030;-60
2022/08/05 11:35:53;;;;;;;2.90;1.60;;;;;;;23.70;52.76;101793.72;5086349;28;20059;-60
2022/08/05 11:38:42;;;;;;;3.13;1.67;;;;;;;23.92;53.33;101801.41;5085690;28;20028;-60
2022/08/05 11:41:12;;;;;;;3.95;1.52;;;;;;;24.00;50.43;101809.25;5082101;28;20477;-59
2022/08/05 11:43:38;;;;;;;4.38;1.65;;;;;;;24.05;49.67;101802.06;5088009;28;20019;-57
2022/08/05 11:46:03;;;;;;;3.28;1.52;;;;;;;24.07;49.17;101811.78;5087861;28;20027;-58
2022/08/05 11:48:29;;;;;;;4.40;1.63;;;;;;;24.06;50.20;101812.69;5088813;28;20114;-58
2022/08/05 11:50:54;;;;;;;5.18;1.60;;;;;;;24.01;49.04;101819.88;5082809;28;20387;-61
2022/08/05 11:53:20;;;;;;;3.55;1.73;;;;;;;23.97;49.13;101823.50;5089415;28;20023;-59
2022/08/05 11:55:59;;;;;;;3.17;1.52;;;;;;;23.90;49.24;101837.81;5087620;28;20315;-59
2022/08/05 11:58:39;;;;;;;4.60;1.50;;;;;;;23.90;50.21;101832.50;5092810;28;20391;-65
2022/08/05 12:01:07;;;;;;;5.05;1.90;;;;;;;23.84;49.27;101837.88;5082976;28;20028;-60
2022/08/05 12:03:46;;;;;;;5.28;1.50;;;;;;;23.86;50.75;101836.09;5090745;28;20392;-59
2022/08/05 12:06:13;;;;;;;5.13;1.73;;;;;;;23.78;47.88;101849.50;5092607;28;20081;-60
2022/08/05 12:08:44;;;;;;;3.22;1.60;;;;;;;23.73;48.87;101849.56;5084713;28;20032;-59
2022/08/05 12:11:12;;;;;;;3.17;1.50;;;;;;;23.74;49.57;101867.31;5082028;28;20028;-64
2022/08/05 12:13:38;;;;;;;3.97;1.45;;;;;;;23.74;50.04;101863.78;5072542;28;20058;-62
2022/08/05 12:16:05;;;;;;;3.42;1.63;;;;;;;23.66;47.71;101871.84;5072207;28;20198;-64
2022/08/05 12:18:34;;;;;;;3.25;1.40;;;;;;;23.62;48.00;101870.13;5071069;28;20480;-62
2022/08/05 12:21:10;;;;;;;4.43;1.40;;;;;;;23.62;49.82;101870.13;5067721;28;20045;-61
2022/08/05 12:23:36;;;;;;;3.58;1.92;;;;;;;23.58;48.46;101881.75;5069699;28;20483;-61
2022/08/05 12:26:01;;;;;;;3.22;1.35;;;;;;;23.50;48.26;101887.16;5069621;28;20026;-60
2022/08/05 12:28:37;;;;;;;2.15;1.00;;;;;;;23.54;47.78;101883.56;5078263;28;20034;-62
2022/08/05 12:31:03;;;;;;;2.88;1.15;;;;;;;23.57;46.04;101888.81;5073571;28;20009;-62
2022/08/05 12:33:29;;;;;;;4.47;1.20;;;;;;;23.60;46.23;101896.75;5075158;28;20112;-59